createdAt,value
2022-08-17T00:00:34.995Z,22.50
2022-08-17T00:03:08.323Z,22.60
2022-08-17T00:05:43.691Z,22.50
2022-08-17T00:08:13.018Z,22.50
2022-08-17T00:10:41.691Z,22.50
2022-08-17T00:13:12.533Z,22.50
2022-08-17T00:15:40.770Z,22.50
2022-08-17T00:19:06.680Z,22.40
2022-08-17T00:21:00.539Z,22.40
2022-08-17T00:23:29.379Z,22.40
2022-08-17T00:25:57.354Z,22.40
2022-08-17T00:28:25.819Z,22.40
2022-08-17T00:30:54.246Z,22.40
2022-08-17T00:33:25.531Z,22.40
2022-08-17T00:35:54.248Z,22.40
2022-08-17T00:38:24.091Z,22.30
2022-08-17T00:40:55.827Z,22.40
2022-08-17T00:43:29.753Z,22.30
2022-08-17T00:45:58.447Z,22.20
2022-08-17T00:48:30.090Z,22.30
2022-08-17T00:51:04.242Z,22.20
2022-08-17T00:53:36.831Z,22.10
2022-08-17T00:56:08.772Z,22.00
2022-08-17T00:58:37.896Z,22.10
2022-08-17T01:01:09.469Z,22.00
2022-08-17T01:03:39.847Z,22.00
2022-08-17T01:06:10.135Z,22.00
2022-08-17T01:08:41.093Z,22.00
2022-08-17T01:11:10.209Z,22.00
2022-08-17T01:13:41.996Z,22.00
2022-08-17T01:16:17.066Z,22.00
2022-08-17T01:18:47.187Z,22.00
2022-08-17T01:21:21.755Z,21.90
2022-08-17T01:23:51.462Z,22.00
2022-08-17T01:26:20.073Z,21.80
2022-08-17T01:28:54.029Z,21.80
2022-08-17T01:31:25.839Z,21.90
2022-08-17T01:33:53.916Z,21.90
2022-08-17T01:36:21.988Z,21.90
2022-08-17T01:38:51.586Z,21.90
2022-08-17T01:41:22.075Z,21.90
2022-08-17T01:43:55.173Z,21.90
2022-08-17T01:46:27.199Z,21.90
2022-08-17T01:48:56.167Z,21.80
2022-08-17T01:51:25.107Z,21.80
2022-08-17T01:53:58.484Z,21.70
2022-08-17T01:56:27.862Z,21.70
2022-08-17T01:58:55.841Z,21.60
2022-08-17T02:01:26.949Z,21.70
2022-08-17T02:03:59.570Z,21.60
2022-08-17T02:06:30.665Z,21.60
2022-08-17T02:09:02.689Z,21.60
2022-08-17T02:11:33.064Z,21.70
2022-08-17T02:14:03.339Z,21.70
2022-08-17T02:16:36.805Z,21.60
2022-08-17T02:19:05.628Z,21.60
2022-08-17T02:21:34.283Z,21.60
2022-08-17T02:24:04.376Z,21.50
2022-08-17T02:26:32.390Z,21.50
2022-08-17T02:29:00.469Z,21.40
2022-08-17T02:31:28.409Z,21.40
2022-08-17T02:34:00.417Z,21.40
2022-08-17T02:36:33.107Z,21.40
2022-08-17T02:39:01.664Z,21.30
2022-08-17T02:41:31.352Z,21.20
2022-08-17T02:43:59.655Z,21.20
2022-08-17T02:46:27.986Z,21.30
2022-08-17T02:48:56.015Z,21.30
2022-08-17T02:51:24.180Z,21.40
2022-08-17T02:53:52.349Z,21.40
2022-08-17T02:56:34.749Z,21.30
2022-08-17T02:59:02.734Z,21.20
2022-08-17T03:01:30.782Z,21.20
2022-08-17T03:03:58.919Z,21.10
2022-08-17T03:06:28.541Z,21.20
2022-08-17T03:08:56.487Z,21.20
2022-08-17T03:11:24.533Z,21.10
2022-08-17T03:13:54.007Z,21.00
2022-08-17T03:16:22.066Z,21.10
2022-08-17T03:18:50.019Z,21.00
2022-08-17T03:21:18.017Z,21.00
2022-08-17T03:23:46.306Z,20.80
2022-08-17T03:26:16.303Z,20.70
2022-08-17T03:28:45.155Z,20.80
2022-08-17T03:31:14.616Z,20.90
2022-08-17T03:33:42.673Z,20.90
2022-08-17T03:36:11.422Z,20.70
2022-08-17T03:38:39.639Z,20.80
2022-08-17T03:41:08.526Z,20.70
2022-08-17T03:43:36.622Z,20.60
2022-08-17T03:46:29.040Z,20.60
2022-08-17T03:49:23.137Z,20.60
2022-08-17T03:52:08.586Z,20.40
2022-08-17T03:54:54.309Z,20.50
2022-08-17T03:57:22.364Z,20.70
2022-08-17T03:59:50.582Z,20.60
2022-08-17T04:02:21.044Z,20.70
2022-08-17T04:04:51.345Z,20.70
2022-08-17T04:07:20.263Z,20.60
2022-08-17T04:09:48.859Z,20.40
2022-08-17T04:12:18.134Z,20.40
2022-08-17T04:14:53.307Z,20.50
2022-08-17T04:17:24.949Z,20.50
2022-08-17T04:19:55.163Z,20.60
2022-08-17T04:22:31.073Z,20.60
2022-08-17T04:25:06.783Z,20.60
2022-08-17T04:27:34.767Z,20.60
2022-08-17T04:30:03.447Z,20.60
2022-08-17T04:33:04.698Z,20.50
2022-08-17T04:35:23.612Z,20.40
2022-08-17T04:37:52.038Z,20.50
2022-08-17T04:40:38.997Z,20.40
2022-08-17T04:43:09.367Z,20.50
2022-08-17T04:45:55.686Z,20.60
2022-08-17T04:48:29.828Z,20.60
2022-08-17T04:51:09.606Z,20.60
2022-08-17T04:53:38.675Z,20.60
2022-08-17T04:56:07.446Z,20.60
2022-08-17T04:58:40.051Z,20.70
2022-08-17T05:01:08.416Z,20.70
2022-08-17T05:03:36.812Z,20.50
2022-08-17T05:06:06.468Z,20.60
2022-08-17T05:08:34.475Z,20.60
2022-08-17T05:11:02.718Z,20.60
2022-08-17T05:13:30.812Z,20.50
2022-08-17T05:16:00.896Z,20.70
2022-08-17T05:18:30.114Z,20.80
2022-08-17T05:20:58.601Z,20.80
2022-08-17T05:23:37.856Z,20.90
2022-08-17T05:26:11.677Z,21.00
2022-08-17T05:28:57.187Z,21.10
2022-08-17T05:31:27.886Z,21.10
2022-08-17T05:33:55.861Z,21.20
2022-08-17T05:36:41.984Z,21.20
2022-08-17T05:39:16.858Z,21.30
2022-08-17T05:41:46.588Z,21.30
2022-08-17T05:44:14.717Z,21.40
2022-08-17T05:46:49.024Z,21.40
2022-08-17T05:49:20.529Z,21.60
2022-08-17T05:52:13.436Z,21.70
2022-08-17T05:54:59.703Z,21.80
2022-08-17T05:57:43.517Z,21.80
2022-08-17T06:00:26.467Z,21.90
2022-08-17T06:03:18.354Z,22.00
2022-08-17T06:06:07.207Z,22.30
2022-08-17T06:08:41.078Z,22.60
2022-08-17T06:11:20.039Z,22.70
2022-08-17T06:13:59.138Z,22.70
2022-08-17T06:16:34.211Z,22.70
2022-08-17T06:19:07.342Z,22.80
2022-08-17T06:21:39.342Z,22.90
2022-08-17T06:24:15.987Z,23.10
2022-08-17T06:26:46.771Z,23.20
2022-08-17T06:29:22.489Z,23.30
2022-08-17T06:31:50.967Z,23.50
2022-08-17T06:34:21.650Z,23.70
2022-08-17T06:36:57.916Z,23.70
2022-08-17T06:39:42.673Z,23.90
2022-08-17T06:43:04.023Z,24.10
2022-08-17T06:45:13.186Z,24.00
2022-08-17T06:47:46.462Z,24.10
2022-08-17T06:50:21.106Z,24.30
2022-08-17T06:52:56.152Z,24.60
2022-08-17T06:55:34.464Z,24.60
2022-08-17T06:58:16.319Z,24.90
2022-08-17T07:00:48.828Z,25.20
2022-08-17T07:03:26.707Z,25.30
2022-08-17T07:05:58.784Z,25.40
2022-08-17T07:08:35.041Z,25.40
2022-08-17T07:11:09.046Z,25.60
2022-08-17T07:13:51.462Z,25.60
2022-08-17T07:16:27.612Z,25.70
2022-08-17T07:18:57.894Z,25.80
2022-08-17T07:21:43.927Z,26.00
2022-08-17T07:24:30.192Z,26.10
2022-08-17T07:27:08.165Z,26.20
2022-08-17T07:29:42.168Z,26.40
2022-08-17T07:32:12.158Z,26.50
2022-08-17T07:35:23.130Z,26.60
2022-08-17T07:38:25.457Z,26.60
2022-08-17T07:41:05.008Z,26.50
2022-08-17T07:43:35.362Z,26.60
2022-08-17T07:46:41.559Z,26.90
2022-08-17T07:49:35.126Z,26.80
2022-08-17T07:52:47.915Z,26.90
2022-08-17T07:54:56.388Z,27.00
2022-08-17T07:57:35.793Z,27.20
2022-08-17T08:00:32.363Z,27.50
2022-08-17T08:03:18.422Z,27.60
2022-08-17T08:05:56.037Z,27.80
2022-08-17T08:08:29.154Z,27.90
2022-08-17T08:11:07.387Z,28.40
2022-08-17T08:13:40.422Z,28.60
2022-08-17T08:16:23.974Z,29.10
2022-08-17T08:18:57.257Z,29.50
2022-08-17T08:21:37.460Z,29.50
2022-08-17T08:24:32.810Z,29.60
2022-08-17T08:27:11.312Z,29.80
2022-08-17T08:29:48.659Z,30.70
2022-08-17T08:32:22.140Z,31.50
2022-08-17T08:35:04.868Z,31.70
2022-08-17T08:37:44.607Z,31.70
2022-08-17T08:40:32.063Z,31.70
2022-08-17T08:43:10.849Z,31.60
2022-08-17T08:45:45.696Z,31.70
2022-08-17T08:48:56.816Z,31.40
2022-08-17T08:51:28.064Z,31.40
2022-08-17T08:54:04.891Z,31.30
2022-08-17T08:56:39.488Z,31.60
2022-08-17T08:59:17.955Z,32.00
2022-08-17T09:01:56.889Z,32.60
2022-08-17T09:05:02.803Z,32.60
2022-08-17T09:07:39.104Z,32.60
2022-08-17T09:10:13.934Z,33.10
2022-08-17T09:12:50.398Z,33.50
2022-08-17T09:15:23.079Z,33.20
2022-08-17T09:18:28.479Z,32.60
2022-08-17T09:20:52.024Z,32.20
2022-08-17T09:23:32.585Z,31.90
2022-08-17T09:26:07.813Z,31.60
2022-08-17T09:28:38.114Z,31.60
2022-08-17T09:31:10.687Z,31.90
2022-08-17T09:33:44.287Z,31.90
2022-08-17T09:36:17.497Z,32.20
2022-08-17T09:38:56.664Z,32.60
2022-08-17T09:41:32.522Z,32.80
2022-08-17T09:44:09.614Z,32.80
2022-08-17T09:46:56.920Z,33.10
2022-08-17T09:49:32.092Z,33.20
2022-08-17T09:52:04.579Z,33.80
2022-08-17T09:54:39.611Z,34.40
2022-08-17T09:57:31.470Z,35.20
2022-08-17T10:00:23.867Z,35.80
2022-08-17T10:03:17.187Z,36.70
2022-08-17T10:05:56.623Z,37.00
2022-08-17T10:08:33.883Z,36.90
2022-08-17T10:11:45.805Z,36.80
2022-08-17T10:14:37.537Z,36.20
2022-08-17T10:17:20.768Z,35.80
2022-08-17T10:19:56.038Z,35.70
2022-08-17T10:22:52.661Z,35.50
2022-08-17T10:25:54.142Z,35.50
2022-08-17T10:28:30.223Z,35.80
2022-08-17T10:31:31.070Z,36.50
2022-08-17T10:34:00.251Z,37.20
2022-08-17T10:36:39.304Z,37.90
2022-08-17T10:39:19.840Z,38.70
2022-08-17T10:41:52.954Z,39.70
2022-08-17T10:44:38.828Z,39.60
2022-08-17T10:47:11.809Z,40.20
2022-08-17T10:49:48.122Z,40.20
2022-08-17T10:52:48.728Z,39.90
2022-08-17T10:55:20.485Z,39.90
2022-08-17T10:57:50.712Z,39.50
2022-08-17T11:01:02.317Z,40.00
2022-08-17T11:03:33.352Z,40.70
2022-08-17T11:06:15.337Z,40.80
2022-08-17T11:09:22.308Z,41.30
2022-08-17T11:12:12.900Z,41.20
2022-08-17T11:14:57.956Z,41.40
2022-08-17T11:18:04.429Z,41.80
2022-08-17T11:21:05.145Z,41.80
2022-08-17T11:24:03.640Z,40.70
2022-08-17T11:26:36.158Z,39.60
2022-08-17T11:29:09.226Z,38.40
2022-08-17T11:31:40.581Z,37.70
2022-08-17T11:34:21.370Z,37.10
2022-08-17T11:37:34.911Z,36.70
2022-08-17T11:40:26.542Z,36.00
2022-08-17T11:43:08.819Z,35.50
2022-08-17T11:46:01.468Z,35.10
2022-08-17T11:48:56.550Z,34.80
2022-08-17T11:51:35.244Z,34.50
2022-08-17T11:54:31.870Z,34.20
2022-08-17T11:56:59.328Z,34.20
2022-08-17T11:59:59.036Z,34.20
2022-08-17T12:02:47.405Z,34.10
2022-08-17T12:05:33.341Z,34.10
2022-08-17T12:08:19.857Z,34.20
2022-08-17T12:11:04.428Z,33.90
2022-08-17T12:13:43.364Z,33.80
2022-08-17T12:16:16.661Z,33.70
2022-08-17T12:18:51.648Z,33.70
2022-08-17T12:21:46.318Z,33.60
2022-08-17T12:24:29.253Z,33.50
2022-08-17T12:27:01.615Z,33.30
2022-08-17T12:29:35.930Z,33.30
2022-08-17T12:32:14.161Z,33.20
2022-08-17T12:34:44.134Z,33.10
2022-08-17T12:37:18.410Z,33.00
2022-08-17T12:39:55.686Z,33.00
2022-08-17T12:42:31.342Z,33.10
2022-08-17T12:45:00.285Z,33.00
2022-08-17T12:47:30.436Z,32.80
2022-08-17T12:50:08.440Z,32.60
2022-08-17T12:53:01.110Z,32.40
2022-08-17T12:55:36.741Z,32.30
2022-08-17T12:58:09.932Z,32.40
2022-08-17T13:00:48.695Z,32.50
2022-08-17T13:03:20.076Z,32.40
2022-08-17T13:05:58.245Z,32.40
2022-08-17T13:08:30.542Z,32.40
2022-08-17T13:11:01.194Z,32.30
2022-08-17T13:13:33.695Z,32.40
2022-08-17T13:16:04.266Z,32.40
2022-08-17T13:18:45.122Z,32.40
2022-08-17T13:21:26.973Z,32.40
2022-08-17T13:23:57.812Z,32.50
2022-08-17T13:26:31.934Z,32.40
2022-08-17T13:29:03.392Z,32.50
2022-08-17T13:31:46.575Z,32.40
2022-08-17T13:34:36.948Z,32.40
2022-08-17T13:37:32.768Z,32.50
2022-08-17T13:40:03.155Z,32.60
2022-08-17T13:42:52.178Z,32.60
2022-08-17T13:45:50.825Z,32.60
2022-08-17T13:48:26.285Z,32.40
2022-08-17T13:51:16.294Z,32.40
2022-08-17T13:53:58.525Z,32.60
2022-08-17T13:56:38.902Z,32.50
2022-08-17T13:59:12.496Z,32.50
2022-08-17T14:01:49.644Z,32.70
2022-08-17T14:04:24.243Z,32.70
2022-08-17T14:06:56.183Z,32.70
2022-08-17T14:09:27.956Z,32.70
2022-08-17T14:11:58.846Z,32.50
2022-08-17T14:14:27.778Z,32.50
2022-08-17T14:16:58.161Z,32.40
2022-08-17T14:19:27.273Z,32.50
2022-08-17T14:21:58.775Z,32.60
2022-08-17T14:24:29.773Z,32.50
2022-08-17T14:26:58.372Z,32.50
2022-08-17T14:29:29.170Z,32.40
2022-08-17T14:32:03.271Z,32.30
2022-08-17T14:34:31.500Z,32.30
2022-08-17T14:36:59.633Z,32.20
2022-08-17T14:39:28.878Z,32.10
2022-08-17T14:41:58.390Z,32.00
2022-08-17T14:44:26.562Z,31.90
2022-08-17T14:46:54.615Z,31.90
2022-08-17T14:49:26.106Z,31.80
2022-08-17T14:51:54.226Z,31.80
2022-08-17T14:54:33.610Z,31.70
2022-08-17T14:57:11.561Z,31.70
2022-08-17T14:59:53.229Z,31.70
2022-08-17T15:02:29.638Z,31.70
2022-08-17T15:05:02.448Z,31.60
2022-08-17T15:07:31.355Z,31.60
2022-08-17T15:10:01.469Z,31.50
2022-08-17T15:12:33.675Z,31.40
2022-08-17T15:15:04.731Z,31.40
2022-08-17T15:17:45.063Z,31.50
2022-08-17T15:20:17.106Z,31.40
2022-08-17T15:22:46.742Z,31.40
2022-08-17T15:25:15.857Z,31.50
2022-08-17T15:27:44.056Z,31.50
2022-08-17T15:30:13.493Z,31.60
2022-08-17T15:32:51.377Z,31.60
2022-08-17T15:35:28.069Z,31.70
2022-08-17T15:37:57.581Z,31.80
2022-08-17T15:40:26.153Z,31.90
2022-08-17T15:42:54.381Z,32.00
2022-08-17T15:45:28.312Z,32.20
2022-08-17T15:47:56.374Z,32.20
2022-08-17T15:50:26.027Z,32.20
2022-08-17T15:52:57.930Z,32.30
2022-08-17T15:55:27.657Z,32.40
2022-08-17T15:57:55.840Z,32.40
2022-08-17T16:00:25.814Z,32.40
2022-08-17T16:03:46.148Z,32.40
2022-08-17T16:05:44.155Z,32.40
2022-08-17T16:08:20.131Z,32.30
2022-08-17T16:10:49.153Z,32.10
2022-08-17T16:13:18.259Z,32.10
2022-08-17T16:15:54.851Z,32.10
2022-08-17T16:18:28.344Z,32.10
2022-08-17T16:20:57.895Z,32.10
2022-08-17T16:23:26.208Z,32.10
2022-08-17T16:25:54.587Z,32.20
2022-08-17T16:28:35.662Z,32.20
2022-08-17T16:31:08.019Z,32.10
2022-08-17T16:33:37.633Z,32.00
2022-08-17T16:36:08.479Z,32.00
2022-08-17T16:38:36.902Z,31.90
2022-08-17T16:41:06.008Z,31.80
2022-08-17T16:43:34.417Z,31.70
2022-08-17T16:46:03.257Z,31.60
2022-08-17T16:48:31.723Z,31.50
2022-08-17T16:51:04.480Z,31.50
2022-08-17T16:53:34.190Z,31.40
2022-08-17T16:56:03.701Z,31.10
2022-08-17T16:58:31.833Z,31.00
2022-08-17T17:01:00.149Z,31.00
2022-08-17T17:03:30.429Z,30.90
2022-08-17T17:06:13.717Z,30.80
2022-08-17T17:08:50.756Z,30.70
2022-08-17T17:11:25.967Z,30.70
2022-08-17T17:13:57.987Z,30.60
2022-08-17T17:16:36.513Z,30.60
2022-08-17T17:19:12.382Z,30.50
2022-08-17T17:21:47.984Z,30.50
2022-08-17T17:24:26.239Z,30.50
2022-08-17T17:27:15.631Z,30.50
2022-08-17T17:30:00.709Z,30.40
2022-08-17T17:32:38.069Z,30.40
2022-08-17T17:35:12.548Z,30.30
2022-08-17T17:37:43.949Z,30.30
2022-08-17T17:40:20.635Z,30.30
2022-08-17T17:42:52.029Z,30.40
2022-08-17T17:45:25.985Z,30.40
2022-08-17T17:47:54.564Z,30.40
2022-08-17T17:50:37.461Z,30.40
2022-08-17T17:53:09.373Z,30.40
2022-08-17T17:55:55.414Z,30.30
2022-08-17T17:58:34.794Z,30.20
2022-08-17T18:01:17.499Z,30.10
2022-08-17T18:04:00.285Z,30.10
2022-08-17T18:06:39.792Z,30.10
2022-08-17T18:09:23.299Z,30.00
2022-08-17T18:12:05.500Z,29.90
2022-08-17T18:14:52.613Z,29.90
2022-08-17T18:17:20.799Z,29.90
2022-08-17T18:19:48.859Z,29.80
2022-08-17T18:22:19.635Z,29.70
2022-08-17T18:24:54.247Z,29.60
2022-08-17T18:27:31.541Z,29.70
2022-08-17T18:30:03.437Z,29.60
2022-08-17T18:32:38.177Z,29.40
2022-08-17T18:35:32.721Z,29.60
2022-08-17T18:38:21.496Z,29.50
2022-08-17T18:41:00.838Z,29.40
2022-08-17T18:43:44.275Z,29.40
2022-08-17T18:46:28.918Z,29.40
2022-08-17T18:48:59.847Z,29.40
2022-08-17T18:51:40.400Z,29.20
2022-08-17T18:54:21.583Z,29.20
2022-08-17T18:56:54.773Z,29.20
2022-08-17T18:59:33.560Z,29.20
2022-08-17T19:02:27.313Z,29.10
2022-08-17T19:05:10.460Z,29.10
2022-08-17T19:07:41.926Z,29.00
2022-08-17T19:10:22.038Z,29.00
2022-08-17T19:13:00.211Z,28.90
2022-08-17T19:15:36.549Z,29.00
2022-08-17T19:18:12.080Z,29.00
2022-08-17T19:20:46.708Z,28.90
2022-08-17T19:23:20.357Z,28.80
2022-08-17T19:25:52.652Z,28.80
2022-08-17T19:28:25.109Z,28.60
2022-08-17T19:30:59.514Z,28.60
2022-08-17T19:33:27.971Z,28.60
2022-08-17T19:36:06.397Z,28.60
2022-08-17T19:38:54.792Z,28.40
2022-08-17T19:41:30.891Z,28.40
2022-08-17T19:44:13.202Z,28.40
2022-08-17T19:46:50.579Z,28.30
2022-08-17T19:49:40.943Z,28.40
2022-08-17T19:52:24.173Z,28.40
2022-08-17T19:54:57.507Z,28.40
2022-08-17T19:57:37.912Z,28.30
2022-08-17T20:00:11.253Z,28.20
2022-08-17T20:02:53.405Z,28.20
2022-08-17T20:05:25.302Z,28.20
2022-08-17T20:07:58.383Z,28.20
2022-08-17T20:10:41.405Z,28.10
2022-08-17T20:13:13.379Z,28.10
2022-08-17T20:15:43.898Z,28.20
2022-08-17T20:18:21.117Z,28.10
2022-08-17T20:20:58.338Z,28.10
2022-08-17T20:23:46.436Z,28.10
2022-08-17T20:26:22.293Z,28.00
2022-08-17T20:29:09.967Z,28.00
2022-08-17T20:31:44.586Z,27.90
2022-08-17T20:34:37.019Z,27.90
2022-08-17T20:37:08.899Z,27.80
2022-08-17T20:39:40.728Z,27.80
2022-08-17T20:42:28.609Z,27.70
2022-08-17T20:44:58.926Z,27.70
2022-08-17T20:47:32.896Z,27.70
2022-08-17T20:50:06.899Z,27.70
2022-08-17T20:52:50.824Z,27.60
2022-08-17T20:55:53.406Z,27.60
2022-08-17T20:58:47.386Z,27.50
2022-08-17T21:01:24.255Z,27.50
2022-08-17T21:03:52.759Z,27.40
2022-08-17T21:06:24.987Z,27.40
2022-08-17T21:08:59.687Z,27.40
2022-08-17T21:11:56.961Z,27.40
2022-08-17T21:14:44.239Z,27.50
2022-08-17T21:17:38.245Z,27.50
2022-08-17T21:20:15.967Z,27.50
2022-08-17T21:22:57.753Z,27.40
2022-08-17T21:26:04.865Z,27.50
2022-08-17T21:29:01.310Z,27.50
2022-08-17T21:31:34.176Z,27.50
2022-08-17T21:34:33.009Z,27.60
2022-08-17T21:37:29.504Z,27.50
2022-08-17T21:40:01.517Z,27.50
2022-08-17T21:42:32.517Z,27.50
2022-08-17T21:45:11.800Z,27.50
2022-08-17T21:47:48.937Z,27.40
2022-08-17T21:50:20.538Z,27.40
2022-08-17T21:52:50.096Z,27.40
2022-08-17T21:55:29.104Z,27.40
2022-08-17T21:58:14.277Z,27.30
2022-08-17T22:00:45.037Z,27.40
2022-08-17T22:03:27.390Z,27.40
2022-08-17T22:05:55.603Z,27.40
2022-08-17T22:08:26.019Z,27.40
2022-08-17T22:11:03.018Z,27.50
2022-08-17T22:13:31.409Z,27.50
2022-08-17T22:16:15.420Z,27.50
2022-08-17T22:18:58.165Z,27.50
2022-08-17T22:21:27.740Z,27.70
2022-08-17T22:24:08.204Z,27.60
2022-08-17T22:27:01.364Z,27.30
2022-08-17T22:29:45.359Z,26.90
2022-08-17T22:32:32.444Z,26.50
2022-08-17T22:35:38.404Z,26.30
2022-08-17T22:38:26.697Z,25.80
2022-08-17T22:40:58.493Z,25.40
2022-08-17T22:43:29.862Z,25.00
2022-08-17T22:46:01.615Z,24.90
2022-08-17T22:48:31.444Z,24.60
2022-08-17T22:51:12.849Z,24.40
2022-08-17T22:54:05.288Z,24.20
2022-08-17T22:56:51.827Z,24.00
2022-08-17T22:59:39.605Z,23.90
2022-08-17T23:02:18.023Z,23.60
2022-08-17T23:04:48.850Z,23.40
2022-08-17T23:07:17.627Z,23.40
2022-08-17T23:09:45.879Z,23.20
2022-08-17T23:12:18.051Z,22.90
2022-08-17T23:14:51.466Z,22.70
2022-08-17T23:17:19.519Z,22.70
2022-08-17T23:19:47.603Z,22.50
2022-08-17T23:22:15.810Z,22.50
2022-08-17T23:24:48.896Z,22.50
2022-08-17T23:27:17.290Z,22.50
2022-08-17T23:29:48.644Z,22.40
2022-08-17T23:32:19.269Z,22.30
2022-08-17T23:34:50.607Z,22.30
2022-08-17T23:37:20.285Z,22.30
2022-08-17T23:39:48.386Z,22.20
2022-08-17T23:42:21.840Z,22.10
2022-08-17T23:44:51.332Z,22.10
2022-08-17T23:47:19.623Z,22.00
2022-08-17T23:49:47.834Z,21.90
2022-08-17T23:52:16.928Z,22.00
2022-08-17T23:54:48.498Z,22.00
2022-08-17T23:57:19.356Z,22.00
2022-08-17T23:59:47.749Z,22.10
